Time;durP1;ratioP1;P1;durP2;ratioP2;P2;SDS_P1;SDS_P2;PMS_P1;PMS_P2;Temp;Humidity;BMP_temperature;BMP_pressure;BME280_temperature;BME280_humidity;BME280_pressure;Samples;Min_cycle;Max_cycle;Signal;HPM_P1;HPM_P2
2022/04/08 00:02:00;;;;;;;2.43;1.13;;;;;;;;;;4992698;28;20198;-88
2022/04/08 00:05:09;;;;;;;1.97;1.00;;;;;;;;;;4992768;28;20225;-88
2022/04/08 00:08:13;;;;;;;2.17;1.10;;;;;;;;;;4992338;28;20541;-86
2022/04/08 00:11:18;;;;;;;4.60;0.93;;;;;;;;;;4992881;28;20516;-87
2022/04/08 00:14:22;;;;;;;6.67;1.33;;;;;;;;;;5003726;28;20181;-88
2022/04/08 00:17:26;;;;;;;3.20;1.37;;;;;;;;;;4992477;28;20213;-87
2022/04/08 00:20:32;;;;;;;3.50;1.20;;;;;;;;;;4993356;28;20173;-87
2022/04/08 00:23:36;;;;;;;4.60;1.17;;;;;;;;;;5003276;28;20204;-86
2022/04/08 00:26:42;;;;;;;3.50;1.40;;;;;;;;;;4992200;28;20221;-87
2022/04/08 00:29:45;;;;;;;3.73;1.30;;;;;;;;;;4992452;28;20185;-87
2022/04/08 00:32:51;;;;;;;6.43;1.37;;;;;;;;;;4992283;28;20178;-86
2022/04/08 00:35:55;;;;;;;3.03;1.20;;;;;;;;;;4992140;28;20210;-86
2022/04/08 00:38:59;;;;;;;4.40;1.27;;;;;;;;;;5003797;28;20632;-86
2022/04/08 00:42:06;;;;;;;5.57;1.43;;;;;;;;;;5014582;28;20632;-86
2022/04/08 00:45:10;;;;;;;5.93;3.03;;;;;;;;;;4992509;28;20202;-87
2022/04/08 00:48:14;;;;;;;3.00;1.17;;;;;;;;;;4992258;28;20182;-86
2022/04/08 00:51:19;;;;;;;4.10;1.10;;;;;;;;;;5003300;28;20182;-86
2022/04/08 00:54:23;;;;;;;7.30;1.40;;;;;;;;;;4991363;28;20185;-87
2022/04/08 00:57:28;;;;;;;4.23;1.40;;;;;;;;;;4991924;28;20224;-86
2022/04/08 01:00:34;;;;;;;2.17;1.10;;;;;;;;;;5002802;28;20189;-87
2022/04/08 01:03:38;;;;;;;12.30;1.83;;;;;;;;;;5002982;28;20181;-86
2022/04/08 01:06:43;;;;;;;4.67;1.27;;;;;;;;;;4991617;28;20217;-87
2022/04/08 01:09:47;;;;;;;5.00;1.30;;;;;;;;;;5002713;28;20177;-86
2022/04/08 01:12:52;;;;;;;6.20;1.50;;;;;;;;;;4991584;28;20189;-87
2022/04/08 01:15:56;;;;;;;4.60;1.37;;;;;;;;;;5002780;28;20221;-86
2022/04/08 01:18:59;;;;;;;6.50;1.23;;;;;;;;;;5002601;28;20197;-86
2022/04/08 01:22:04;;;;;;;4.80;1.50;;;;;;;;;;4991636;28;20189;-86
2022/04/08 01:25:10;;;;;;;5.20;1.60;;;;;;;;;;5014710;28;20209;-86
2022/04/08 01:28:14;;;;;;;2.67;1.03;;;;;;;;;;4991676;28;20182;-86
2022/04/08 01:31:19;;;;;;;5.93;1.33;;;;;;;;;;5013567;28;20181;-86
2022/04/08 01:34:23;;;;;;;3.67;1.40;;;;;;;;;;5002287;28;20177;-86
2022/04/08 01:37:27;;;;;;;6.03;1.40;;;;;;;;;;4991365;28;20217;-86
2022/04/08 01:40:31;;;;;;;2.63;1.00;;;;;;;;;;5002946;28;20177;-86
2022/04/08 01:43:35;;;;;;;8.10;1.20;;;;;;;;;;4991469;28;20182;-86
2022/04/08 01:46:39;;;;;;;8.13;1.50;;;;;;;;;;5002545;28;20213;-86
2022/04/08 01:49:44;;;;;;;3.00;1.10;;;;;;;;;;5002689;28;20182;-86
2022/04/08 01:52:48;;;;;;;3.83;1.43;;;;;;;;;;5013458;28;20194;-86
2022/04/08 01:55:53;;;;;;;5.63;1.17;;;;;;;;;;4990761;28;20228;-86
2022/04/08 01:58:57;;;;;;;6.77;1.00;;;;;;;;;;4991474;28;20177;-86
2022/04/08 02:02:02;;;;;;;5.83;1.20;;;;;;;;;;4990918;28;20572;-86
2022/04/08 02:05:07;;;;;;;5.23;1.30;;;;;;;;;;4991357;28;20557;-86
2022/04/08 02:08:11;;;;;;;6.03;1.30;;;;;;;;;;4994636;28;20197;-86
2022/04/08 02:11:16;;;;;;;5.43;1.90;;;;;;;;;;4994760;28;20185;-86
2022/04/08 02:14:20;;;;;;;5.47;1.20;;;;;;;;;;5017283;28;20177;-86
2022/04/08 02:17:25;;;;;;;8.03;1.30;;;;;;;;;;4994904;28;20217;-86
2022/04/08 02:20:31;;;;;;;6.57;1.10;;;;;;;;;;4994904;28;20633;-86
2022/04/08 02:23:36;;;;;;;5.87;1.17;;;;;;;;;;5005743;28;20181;-86
2022/04/08 02:26:40;;;;;;;4.03;1.10;;;;;;;;;;4994737;28;20217;-86
2022/04/08 02:29:44;;;;;;;5.03;0.80;;;;;;;;;;4994608;28;20177;-87
2022/04/08 02:32:48;;;;;;;2.67;1.00;;;;;;;;;;4994400;28;20181;-86
2022/04/08 02:35:53;;;;;;;5.70;1.00;;;;;;;;;;4994162;28;20213;-86
2022/04/08 02:38:57;;;;;;;6.23;1.27;;;;;;;;;;4994670;28;20181;-86
2022/04/08 02:42:01;;;;;;;6.20;1.30;;;;;;;;;;4994831;28;20194;-86
2022/04/08 02:45:06;;;;;;;6.40;1.20;;;;;;;;;;5005243;28;20209;-86
2022/04/08 02:48:13;;;;;;;3.30;1.17;;;;;;;;;;4994318;28;20178;-86
2022/04/08 02:51:17;;;;;;;3.80;1.10;;;;;;;;;;4994033;28;20182;-86
2022/04/08 02:54:21;;;;;;;6.30;1.40;;;;;;;;;;4994421;28;20178;-86
2022/04/08 02:57:25;;;;;;;6.83;1.10;;;;;;;;;;5005121;28;20216;-86
2022/04/08 03:00:30;;;;;;;4.50;1.20;;;;;;;;;;5005378;28;20177;-86
2022/04/08 03:03:34;;;;;;;3.37;0.90;;;;;;;;;;4993882;28;20177;-86
2022/04/08 03:06:38;;;;;;;5.40;1.40;;;;;;;;;;5006461;28;20217;-86
2022/04/08 03:09:42;;;;;;;3.07;1.13;;;;;;;;;;4983033;28;20182;-86
2022/04/08 03:12:46;;;;;;;5.40;1.23;;;;;;;;;;5008082;28;20189;-86
2022/04/08 03:15:51;;;;;;;4.97;1.20;;;;;;;;;;4975091;28;20213;-86
2022/04/08 03:18:55;;;;;;;6.10;1.20;;;;;;;;;;4975577;28;20549;-88
2022/04/08 03:21:59;;;;;;;4.37;1.30;;;;;;;;;;4984947;28;20530;-88
2022/04/08 03:25:04;;;;;;;5.17;1.50;;;;;;;;;;4985173;28;20218;-88
2022/04/08 03:28:10;;;;;;;9.63;1.90;;;;;;;;;;4984175;28;20182;-88
2022/04/08 03:31:14;;;;;;;3.60;1.43;;;;;;;;;;4974392;28;20199;-87
2022/04/08 03:34:18;;;;;;;9.70;1.27;;;;;;;;;;4980376;28;20202;-91
2022/04/08 03:37:26;;;;;;;7.83;1.33;;;;;;;;;;4985521;28;20221;-88
2022/04/08 03:40:31;;;;;;;3.67;1.07;;;;;;;;;;4995062;28;20197;-88
2022/04/08 03:43:36;;;;;;;7.40;1.30;;;;;;;;;;4984526;28;20182;-89
2022/04/08 03:46:41;;;;;;;5.63;1.47;;;;;;;;;;4973048;28;20226;-88
2022/04/08 03:49:45;;;;;;;7.93;1.60;;;;;;;;;;4984441;28;20538;-89
2022/04/08 03:52:49;;;;;;;3.97;0.90;;;;;;;;;;4973159;28;20178;-89
2022/04/08 03:55:53;;;;;;;5.03;1.50;;;;;;;;;;4984074;28;20230;-88
2022/04/08 03:58:58;;;;;;;6.00;1.53;;;;;;;;;;4984189;28;20178;-88
2022/04/08 04:02:02;;;;;;;5.40;1.40;;;;;;;;;;4984043;28;20182;-88
2022/04/08 04:05:07;;;;;;;5.43;1.17;;;;;;;;;;4983984;28;20214;-88
2022/04/08 04:08:18;;;;;;;4.37;1.17;;;;;;;;;;4983760;28;20186;-88
2022/04/08 04:11:22;;;;;;;4.73;1.37;;;;;;;;;;4984349;28;20178;-88
2022/04/08 04:14:26;;;;;;;4.43;1.10;;;;;;;;;;4972974;28;20182;-88
2022/04/08 04:17:30;;;;;;;5.50;1.27;;;;;;;;;;4972563;28;20234;-88
2022/04/08 04:20:35;;;;;;;2.70;0.80;;;;;;;;;;4984019;28;20178;-88
2022/04/08 04:23:39;;;;;;;2.83;1.10;;;;;;;;;;4972721;28;20183;-88
2022/04/08 04:26:44;;;;;;;2.53;1.03;;;;;;;;;;4972825;28;20716;-88
2022/04/08 04:29:48;;;;;;;4.43;1.90;;;;;;;;;;4982661;28;20178;-88
2022/04/08 04:32:53;;;;;;;3.43;1.10;;;;;;;;;;4994521;28;20206;-88
2022/04/08 04:35:58;;;;;;;3.53;1.20;;;;;;;;;;4972431;28;20206;-89
2022/04/08 04:39:02;;;;;;;5.50;1.40;;;;;;;;;;4972374;28;20178;-88
2022/04/08 04:42:07;;;;;;;6.23;1.40;;;;;;;;;;5005830;28;20637;-88
2022/04/08 04:45:13;;;;;;;5.33;1.10;;;;;;;;;;4983238;28;20671;-89
2022/04/08 04:48:18;;;;;;;2.93;1.07;;;;;;;;;;4994277;28;20665;-89
2022/04/08 04:51:23;;;;;;;6.50;1.30;;;;;;;;;;4983150;28;20198;-88
2022/04/08 04:54:27;;;;;;;5.27;1.40;;;;;;;;;;4983563;28;20179;-88
2022/04/08 04:57:31;;;;;;;3.93;1.03;;;;;;;;;;4971654;28;20222;-88
2022/04/08 05:00:35;;;;;;;7.80;1.40;;;;;;;;;;4983206;28;20549;-88
2022/04/08 05:03:39;;;;;;;4.30;1.30;;;;;;;;;;4983338;28;20621;-88
2022/04/08 05:06:43;;;;;;;6.30;1.20;;;;;;;;;;4982913;28;20234;-88
2022/04/08 05:09:47;;;;;;;5.10;1.30;;;;;;;;;;4972144;28;20211;-88
2022/04/08 05:12:52;;;;;;;5.40;1.00;;;;;;;;;;4982754;28;20186;-89
2022/04/08 05:15:56;;;;;;;2.97;1.10;;;;;;;;;;4982616;28;20684;-88
2022/04/08 05:19:00;;;;;;;6.43;1.03;;;;;;;;;;4971763;28;20186;-88
2022/04/08 05:22:04;;;;;;;4.67;1.50;;;;;;;;;;4972065;28;20190;-88
2022/04/08 05:25:10;;;;;;;3.97;1.33;;;;;;;;;;4993743;28;20213;-88
2022/04/08 05:28:15;;;;;;;2.23;1.20;;;;;;;;;;4971353;28;20206;-88
2022/04/08 05:31:19;;;;;;;5.27;1.37;;;;;;;;;;4982447;28;20194;-88
2022/04/08 05:34:27;;;;;;;4.57;2.80;;;;;;;;;;4971477;28;20633;-88
2022/04/08 05:37:31;;;;;;;5.27;2.40;;;;;;;;;;4971221;28;20214;-88
2022/04/08 05:40:35;;;;;;;4.70;1.93;;;;;;;;;;4971496;28;20178;-88
2022/04/08 05:43:44;;;;;;;6.97;1.57;;;;;;;;;;4971404;28;20634;-88
2022/04/08 05:46:48;;;;;;;3.57;1.30;;;;;;;;;;4970952;28;20226;-88
2022/04/08 05:49:52;;;;;;;3.43;1.10;;;;;;;;;;4982876;28;20202;-88
2022/04/08 05:52:57;;;;;;;5.53;1.47;;;;;;;;;;4982292;28;20538;-88
2022/04/08 05:56:02;;;;;;;3.00;0.97;;;;;;;;;;4982093;28;20231;-87
2022/04/08 05:59:06;;;;;;;5.70;1.80;;;;;;;;;;4971346;28;20183;-87
2022/04/08 06:02:10;;;;;;;8.10;2.43;;;;;;;;;;4971007;28;20178;-87
2022/04/08 06:05:18;;;;;;;5.00;1.97;;;;;;;;;;4971670;28;20186;-87
2022/04/08 06:08:22;;;;;;;9.60;3.97;;;;;;;;;;4971167;28;20198;-87
2022/04/08 06:11:26;;;;;;;13.40;8.50;;;;;;;;;;4993637;28;20178;-86
2022/04/08 06:14:30;;;;;;;4.93;1.70;;;;;;;;;;4993519;28;20178;-87
2022/04/08 06:17:36;;;;;;;4.37;1.57;;;;;;;;;;4993125;28;20214;-86
2022/04/08 06:20:40;;;;;;;3.50;1.67;;;;;;;;;;4971269;28;20541;-87
2022/04/08 06:23:46;;;;;;;3.50;1.57;;;;;;;;;;4971572;28;20194;-87
2022/04/08 06:26:50;;;;;;;4.60;1.20;;;;;;;;;;4970671;28;20229;-87
2022/04/08 06:29:54;;;;;;;2.17;1.20;;;;;;;;;;4971258;28;20544;-87
2022/04/08 06:32:58;;;;;;;5.23;1.30;;;;;;;;;;4971026;28;20178;-87
2022/04/08 06:36:02;;;;;;;4.17;1.63;;;;;;;;;;4971004;28;20688;-87
2022/04/08 06:39:06;;;;;;;3.83;1.33;;;;;;;;;;4982306;28;20174;-87
2022/04/08 06:42:11;;;;;;;3.07;0.77;;;;;;;;;;4971062;28;20182;-87
2022/04/08 06:45:15;;;;;;;2.53;1.03;;;;;;;;;;4971176;28;20182;-86
2022/04/08 06:48:19;;;;;;;2.00;1.00;;;;;;;;;;4993479;28;20198;-87
2022/04/08 06:51:23;;;;;;;4.10;1.03;;;;;;;;;;4992948;28;20194;-86
2022/04/08 06:54:29;;;;;;;6.07;1.03;;;;;;;;;;4974379;28;20209;-86
2022/04/08 06:57:33;;;;;;;2.33;0.90;;;;;;;;;;4974623;28;20217;-88
2022/04/08 07:00:37;;;;;;;3.40;1.10;;;;;;;;;;4985302;28;20182;-89
2022/04/08 07:03:41;;;;;;;2.07;1.20;;;;;;;;;;4974216;28;20183;-88
2022/04/08 07:06:45;;;;;;;2.43;1.10;;;;;;;;;;4973804;28;20225;-89
2022/04/08 07:09:51;;;;;;;3.80;0.93;;;;;;;;;;4973742;28;20198;-88
2022/04/08 07:12:56;;;;;;;4.07;0.90;;;;;;;;;;4973818;28;20194;-88
2022/04/08 07:16:00;;;;;;;5.33;1.20;;;;;;;;;;4973989;28;20688;-89
2022/04/08 07:19:04;;;;;;;3.33;1.03;;;;;;;;;;4973598;28;20657;-88
2022/04/08 07:22:08;;;;;;;3.90;0.97;;;;;;;;;;4984765;28;20202;-88
2022/04/08 07:25:13;;;;;;;4.17;2.83;;;;;;;;;;4984946;28;20186;-89
2022/04/08 07:28:17;;;;;;;1.87;1.20;;;;;;;;;;4985646;28;20174;-89
2022/04/08 07:31:21;;;;;;;2.57;1.20;;;;;;;;;;4984683;28;20178;-89
2022/04/08 07:34:25;;;;;;;6.30;0.90;;;;;;;;;;4984723;28;20198;-88
2022/04/08 07:37:31;;;;;;;2.17;0.70;;;;;;;;;;4996056;28;20205;-88
2022/04/08 07:40:35;;;;;;;4.57;0.80;;;;;;;;;;4973835;28;20186;-89
2022/04/08 07:43:39;;;;;;;2.17;0.67;;;;;;;;;;4973844;28;20174;-89
2022/04/08 07:46:43;;;;;;;4.53;1.00;;;;;;;;;;4973065;28;20697;-88
2022/04/08 07:49:47;;;;;;;3.93;1.03;;;;;;;;;;4984620;28;20198;-88
2022/04/08 07:52:51;;;;;;;4.50;1.00;;;;;;;;;;4973028;28;20194;-89
2022/04/08 07:55:55;;;;;;;2.07;0.70;;;;;;;;;;4973017;28;20213;-88
2022/04/08 07:58:59;;;;;;;3.23;0.90;;;;;;;;;;4973470;28;20181;-88
2022/04/08 08:02:04;;;;;;;2.67;0.77;;;;;;;;;;4972977;28;20524;-89
2022/04/08 08:05:09;;;;;;;3.53;1.33;;;;;;;;;;4973117;28;20178;-87
2022/04/08 08:08:13;;;;;;;4.13;1.00;;;;;;;;;;4972898;28;20178;-87
2022/04/08 08:11:18;;;;;;;3.43;1.17;;;;;;;;;;4973016;28;20637;-87
2022/04/08 08:14:22;;;;;;;4.50;1.07;;;;;;;;;;4973154;28;20182;-86
2022/04/08 08:17:26;;;;;;;5.97;1.20;;;;;;;;;;4984102;28;20214;-87
2022/04/08 08:20:30;;;;;;;4.40;1.90;;;;;;;;;;4984018;28;20182;-87
2022/04/08 08:23:34;;;;;;;2.97;2.10;;;;;;;;;;4994781;28;20182;-86
2022/04/08 08:26:39;;;;;;;3.97;3.40;;;;;;;;;;4983810;28;20230;-87
2022/04/08 08:29:42;;;;;;;7.43;4.27;;;;;;;;;;4995268;28;20186;-86
2022/04/08 08:32:49;;;;;;;5.13;1.30;;;;;;;;;;4972720;28;20523;-87
2022/04/08 08:35:53;;;;;;;4.23;1.47;;;;;;;;;;4973030;28;20222;-87
2022/04/08 08:38:59;;;;;;;4.90;1.37;;;;;;;;;;4995322;28;20194;-87
2022/04/08 08:42:05;;;;;;;14.97;8.37;;;;;;;;;;5005651;28;20193;-87
2022/04/08 08:45:11;;;;;;;15.77;8.57;;;;;;;;;;4983517;28;20182;-87
2022/04/08 08:48:15;;;;;;;4.43;2.53;;;;;;;;;;4983338;28;20665;-87
2022/04/08 08:51:20;;;;;;;1.77;0.90;;;;;;;;;;4972655;28;20182;-87
2022/04/08 08:54:25;;;;;;;3.43;1.17;;;;;;;;;;4972107;28;20182;-87
2022/04/08 08:57:29;;;;;;;3.90;1.00;;;;;;;;;;4971882;28;20222;-87
2022/04/08 09:00:35;;;;;;;2.77;1.03;;;;;;;;;;4972376;28;20178;-87
2022/04/08 09:03:41;;;;;;;2.17;0.90;;;;;;;;;;4983009;28;20194;-87
2022/04/08 09:06:46;;;;;;;5.23;0.90;;;;;;;;;;4971528;28;20593;-87
2022/04/08 09:09:52;;;;;;;2.47;1.00;;;;;;;;;;4994456;28;20182;-86
2022/04/08 09:12:57;;;;;;;4.23;1.20;;;;;;;;;;4972236;28;20178;-87
2022/04/08 09:16:02;;;;;;;5.27;2.53;;;;;;;;;;4982527;28;20574;-87
2022/04/08 09:19:11;;;;;;;4.03;3.10;;;;;;;;;;4971694;28;20186;-87
2022/04/08 09:22:16;;;;;;;1.87;1.40;;;;;;;;;;4982827;28;20178;-87
2022/04/08 09:25:24;;;;;;;3.40;1.73;;;;;;;;;;4972065;28;20179;-87
2022/04/08 09:28:34;;;;;;;4.37;1.20;;;;;;;;;;4983030;28;20617;-87
2022/04/08 09:31:38;;;;;;;5.63;1.37;;;;;;;;;;4971640;28;20208;-87
2022/04/08 09:34:42;;;;;;;2.70;1.43;;;;;;;;;;4971686;28;20182;-87
2022/04/08 09:38:01;;;;;;;4.43;1.63;;;;;;;;;;4971238;28;20280;-87
2022/04/08 09:41:10;;;;;;;2.50;1.13;;;;;;;;;;4982857;28;20183;-86
2022/04/08 09:44:24;;;;;;;2.93;1.33;;;;;;;;;;4971518;28;20197;-87
2022/04/08 09:47:28;;;;;;;3.17;1.30;;;;;;;;;;4982677;28;20692;-86
2022/04/08 09:50:33;;;;;;;3.70;1.30;;;;;;;;;;4971602;28;20202;-86
2022/04/08 09:53:41;;;;;;;5.33;1.10;;;;;;;;;;4982131;28;20193;-87
2022/04/08 09:56:45;;;;;;;3.40;0.97;;;;;;;;;;4971214;28;20229;-87
2022/04/08 09:59:58;;;;;;;1.77;1.00;;;;;;;;;;4982447;28;20186;-87
2022/04/08 10:03:03;;;;;;;1.23;0.67;;;;;;;;;;4993573;28;20178;-87
2022/04/08 10:06:07;;;;;;;2.40;0.80;;;;;;;;;;4971278;28;20563;-87
2022/04/08 10:09:14;;;;;;;2.43;0.80;;;;;;;;;;4971638;28;20178;-86
2022/04/08 10:12:30;;;;;;;1.37;0.67;;;;;;;;;;4971389;28;20183;-87
2022/04/08 10:15:39;;;;;;;3.00;0.70;;;;;;;;;;5005080;28;20178;-87
2022/04/08 10:18:45;;;;;;;1.20;0.60;;;;;;;;;;4982218;28;20194;-87
2022/04/08 10:21:52;;;;;;;1.00;0.50;;;;;;;;;;4982355;28;20526;-87
2022/04/08 10:24:57;;;;;;;1.70;0.60;;;;;;;;;;4971473;28;20178;-87
2022/04/08 10:28:01;;;;;;;2.97;0.80;;;;;;;;;;4973089;28;20214;-86
2022/04/08 10:31:25;;;;;;;1.67;0.87;;;;;;;;;;4975025;28;20194;-86
2022/04/08 10:34:34;;;;;;;1.20;0.80;;;;;;;;;;4986207;28;20179;-86
2022/04/08 10:37:38;;;;;;;2.87;0.80;;;;;;;;;;4985615;28;20210;-87
2022/04/08 10:40:56;;;;;;;1.40;0.77;;;;;;;;;;4974593;28;20182;-86
2022/04/08 10:43:59;;;;;;;1.87;0.77;;;;;;;;;;4985721;28;20183;-87
2022/04/08 10:47:10;;;;;;;2.90;1.13;;;;;;;;;;4985703;28;20226;-86
2022/04/08 10:50:33;;;;;;;1.60;0.70;;;;;;;;;;4974625;28;20182;-86
2022/04/08 10:53:41;;;;;;;1.10;0.70;;;;;;;;;;4974162;28;20186;-86
2022/04/08 10:56:55;;;;;;;1.60;0.80;;;;;;;;;;4974231;28;20222;-86
2022/04/08 11:00:03;;;;;;;1.53;0.77;;;;;;;;;;4974464;28;20187;-87
2022/04/08 11:03:10;;;;;;;1.67;0.87;;;;;;;;;;4974628;28;20201;-86
2022/04/08 11:06:15;;;;;;;2.83;0.80;;;;;;;;;;4985633;28;20214;-86
2022/04/08 11:09:20;;;;;;;3.10;0.60;;;;;;;;;;4985390;28;20178;-86
2022/04/08 11:12:25;;;;;;;1.13;0.70;;;;;;;;;;4974713;28;20629;-86
2022/04/08 11:15:31;;;;;;;1.47;0.80;;;;;;;;;;4974240;28;20182;-87
2022/04/08 11:18:35;;;;;;;1.40;0.70;;;;;;;;;;4985816;28;20533;-87
2022/04/08 11:21:41;;;;;;;1.07;0.60;;;;;;;;;;4974950;28;20178;-86
2022/04/08 11:24:45;;;;;;;2.03;0.93;;;;;;;;;;4974650;28;20179;-86
2022/04/08 11:28:04;;;;;;;2.07;0.53;;;;;;;;;;4997240;28;20233;-87
2022/04/08 11:31:08;;;;;;;1.17;0.70;;;;;;;;;;4975515;28;20534;-87
2022/04/08 11:34:13;;;;;;;3.40;0.70;;;;;;;;;;4986494;28;20178;-86
2022/04/08 11:37:26;;;;;;;1.57;0.90;;;;;;;;;;4975142;28;20218;-86
2022/04/08 11:40:33;;;;;;;2.23;1.00;;;;;;;;;;4986607;28;20195;-87
2022/04/08 11:43:37;;;;;;;1.37;0.80;;;;;;;;;;4986163;28;20182;-87
2022/04/08 11:46:41;;;;;;;2.80;0.90;;;;;;;;;;4986032;28;20218;-87
2022/04/08 11:49:45;;;;;;;1.87;0.93;;;;;;;;;;4986143;28;20178;-87
2022/04/08 11:52:58;;;;;;;2.13;0.93;;;;;;;;;;4975335;28;20174;-87
2022/04/08 11:56:03;;;;;;;2.40;1.23;;;;;;;;;;4974934;28;20234;-87
2022/04/08 11:59:13;;;;;;;3.60;1.10;;;;;;;;;;4986797;28;20182;-87
2022/04/08 12:02:19;;;;;;;3.23;1.20;;;;;;;;;;4985800;28;20190;-87
2022/04/08 12:05:29;;;;;;;1.87;1.20;;;;;;;;;;4974695;28;20174;-87
2022/04/08 12:08:33;;;;;;;1.50;1.20;;;;;;;;;;4974891;28;20210;-87
2022/04/08 12:11:39;;;;;;;2.53;1.13;;;;;;;;;;4974840;28;20174;-87
2022/04/08 12:14:43;;;;;;;3.20;1.37;;;;;;;;;;4975434;28;20634;-87
2022/04/08 12:17:48;;;;;;;2.53;1.40;;;;;;;;;;4975373;28;20218;-86
2022/04/08 12:20:56;;;;;;;1.47;1.00;;;;;;;;;;4975651;28;20638;-87
2022/04/08 12:24:03;;;;;;;1.77;1.20;;;;;;;;;;4986552;28;20174;-87
2022/04/08 12:27:17;;;;;;;2.60;1.00;;;;;;;;;;4975337;28;20226;-87
2022/04/08 12:30:26;;;;;;;1.97;1.27;;;;;;;;;;4975192;28;20193;-87
2022/04/08 12:33:30;;;;;;;3.73;1.60;;;;;;;;;;4975441;28;20637;-87
2022/04/08 12:36:35;;;;;;;2.93;1.57;;;;;;;;;;4975023;28;20214;-86
2022/04/08 12:39:39;;;;;;;4.10;1.87;;;;;;;;;;4985002;28;20511;-86
2022/04/08 12:42:43;;;;;;;2.47;1.80;;;;;;;;;;4996664;28;20182;-87
2022/04/08 12:45:49;;;;;;;5.03;2.40;;;;;;;;;;4973562;28;20185;-87
2022/04/08 12:48:54;;;;;;;2.53;2.07;;;;;;;;;;4995623;28;20234;-87
2022/04/08 12:51:58;;;;;;;2.80;2.27;;;;;;;;;;4973078;28;20179;-87
2022/04/08 12:55:03;;;;;;;7.33;2.50;;;;;;;;;;4973496;28;20198;-87
2022/04/08 12:58:07;;;;;;;4.83;3.10;;;;;;;;;;4995120;23;20231;-85
2022/04/08 13:01:12;;;;;;;3.63;2.83;;;;;;;;;;4945183;29;20187;-86
2022/04/08 13:04:16;;;;;;;6.13;2.83;;;;;;;;;;4967279;28;20188;-86
2022/04/08 13:07:20;;;;;;;5.90;3.37;;;;;;;;;;4948364;29;20590;-86
2022/04/08 13:10:24;;;;;;;7.57;3.80;;;;;;;;;;4925784;29;20544;-86
2022/04/08 13:13:28;;;;;;;4.77;3.57;;;;;;;;;;4936273;29;20579;-86
2022/04/08 13:16:32;;;;;;;4.33;3.30;;;;;;;;;;4925482;29;20688;-86
2022/04/08 13:19:36;;;;;;;6.67;3.80;;;;;;;;;;4925801;29;20176;-86
2022/04/08 13:22:41;;;;;;;5.40;3.30;;;;;;;;;;4936470;29;20184;-86
2022/04/08 13:25:44;;;;;;;6.73;2.90;;;;;;;;;;4914834;29;20180;-86
2022/04/08 13:28:49;;;;;;;3.30;3.00;;;;;;;;;;4936568;29;20783;-86
2022/04/08 13:31:53;;;;;;;4.77;2.90;;;;;;;;;;4936182;29;20180;-86
2022/04/08 13:34:57;;;;;;;5.63;2.80;;;;;;;;;;4925209;29;20180;-86
2022/04/08 13:38:02;;;;;;;3.63;2.50;;;;;;;;;;4936135;29;20216;-86
2022/04/08 13:41:06;;;;;;;3.57;3.13;;;;;;;;;;4936084;29;20180;-86
2022/04/08 13:44:11;;;;;;;4.83;2.90;;;;;;;;;;4936488;29;20639;-86
2022/04/08 13:47:15;;;;;;;2.60;2.40;;;;;;;;;;4925217;29;20227;-85
2022/04/08 13:50:19;;;;;;;3.97;2.77;;;;;;;;;;4924895;29;20184;-86
2022/04/08 13:53:23;;;;;;;3.23;2.37;;;;;;;;;;4936315;29;20528;-86
2022/04/08 13:56:27;;;;;;;4.10;2.90;;;;;;;;;;4913941;29;20223;-86
2022/04/08 13:59:31;;;;;;;3.73;2.80;;;;;;;;;;4935651;29;20184;-86
2022/04/08 14:02:38;;;;;;;4.23;2.37;;;;;;;;;;4949888;28;20631;-86
2022/04/08 14:05:42;;;;;;;2.53;2.10;;;;;;;;;;4939757;29;20516;-86
2022/04/08 14:08:47;;;;;;;2.80;2.17;;;;;;;;;;4939388;29;20216;-86
2022/04/08 14:11:51;;;;;;;2.57;1.77;;;;;;;;;;4928742;29;20512;-86
2022/04/08 14:14:55;;;;;;;5.30;1.60;;;;;;;;;;4917561;29;20180;-86
2022/04/08 14:18:00;;;;;;;4.00;1.80;;;;;;;;;;4928300;29;20687;-86
2022/04/08 14:21:04;;;;;;;1.83;1.57;;;;;;;;;;4917671;29;20524;-86
2022/04/08 14:24:08;;;;;;;1.97;1.50;;;;;;;;;;4939366;29;20184;-86
2022/04/08 14:27:12;;;;;;;2.30;1.20;;;;;;;;;;4917435;29;20690;-86
2022/04/08 14:30:16;;;;;;;2.33;1.30;;;;;;;;;;4939387;29;20176;-86
2022/04/08 14:33:20;;;;;;;1.73;1.23;;;;;;;;;;4927940;29;20180;-86
2022/04/08 14:36:24;;;;;;;1.63;1.10;;;;;;;;;;4938935;29;20219;-86
2022/04/08 14:39:29;;;;;;;1.87;1.00;;;;;;;;;;4927734;29;20196;-86
2022/04/08 14:42:35;;;;;;;0.47;0.47;;;;;;;;;;4927589;29;20204;-86
2022/04/08 14:45:40;;;;;;;0.80;0.40;;;;;;;;;;4938784;29;20188;-86
2022/04/08 14:48:44;;;;;;;2.13;1.93;;;;;;;;;;4927704;29;20216;-87
2022/04/08 14:51:48;;;;;;;3.60;0.70;;;;;;;;;;4917162;29;20180;-86
2022/04/08 14:54:52;;;;;;;1.60;1.07;;;;;;;;;;4931372;29;20188;-87
2022/04/08 14:57:56;;;;;;;0.90;0.50;;;;;;;;;;4919566;29;20576;-86
2022/04/08 15:01:00;;;;;;;1.30;0.90;;;;;;;;;;4916673;29;20204;-85
2022/04/08 15:04:04;;;;;;;2.63;0.60;;;;;;;;;;4927761;29;20528;-86
2022/04/08 15:07:09;;;;;;;1.40;0.60;;;;;;;;;;4916633;29;20220;-86
2022/04/08 15:10:14;;;;;;;1.33;0.60;;;;;;;;;;4927570;29;20200;-86
2022/04/08 15:13:18;;;;;;;0.60;0.50;;;;;;;;;;4937566;29;20203;-86
2022/04/08 15:16:22;;;;;;;1.40;0.60;;;;;;;;;;4938376;29;20220;-86
2022/04/08 15:19:26;;;;;;;1.23;0.50;;;;;;;;;;4917234;29;20177;-85
2022/04/08 15:22:30;;;;;;;0.73;0.60;;;;;;;;;;4938810;29;20184;-86
2022/04/08 15:25:34;;;;;;;0.83;0.60;;;;;;;;;;4949551;29;20180;-86
2022/04/08 15:28:39;;;;;;;1.70;0.97;;;;;;;;;;4938238;29;20212;-86
2022/04/08 15:31:44;;;;;;;1.53;0.80;;;;;;;;;;4937864;29;20181;-86
2022/04/08 15:34:48;;;;;;;1.60;0.73;;;;;;;;;;4938087;29;20206;-86
2022/04/08 15:37:53;;;;;;;2.37;1.10;;;;;;;;;;4926755;29;20215;-86
2022/04/08 15:40:58;;;;;;;2.73;1.20;;;;;;;;;;4926866;29;20180;-86
2022/04/08 15:44:04;;;;;;;2.07;1.87;;;;;;;;;;4927471;29;20180;-86
2022/04/08 15:47:08;;;;;;;5.47;1.30;;;;;;;;;;4937496;29;20224;-86
2022/04/08 15:50:12;;;;;;;1.87;1.10;;;;;;;;;;4926554;29;20663;-86
2022/04/08 15:53:16;;;;;;;2.13;0.90;;;;;;;;;;4937369;29;20529;-86
2022/04/08 15:56:21;;;;;;;1.17;0.90;;;;;;;;;;4948228;29;20232;-86
2022/04/08 15:59:25;;;;;;;1.27;0.80;;;;;;;;;;4948624;29;20521;-86
2022/04/08 16:02:29;;;;;;;1.50;1.07;;;;;;;;;;4915443;29;20184;-86
2022/04/08 16:05:33;;;;;;;1.83;1.20;;;;;;;;;;4915702;29;20188;-86
2022/04/08 16:08:38;;;;;;;1.57;0.80;;;;;;;;;;4915303;29;20216;-86
2022/04/08 16:11:42;;;;;;;1.47;0.70;;;;;;;;;;4937284;29;20184;-86
2022/04/08 16:14:46;;;;;;;0.87;0.70;;;;;;;;;;4926654;29;20549;-86
2022/04/08 16:17:50;;;;;;;1.50;0.70;;;;;;;;;;4936882;29;20227;-86
2022/04/08 16:20:55;;;;;;;0.70;0.50;;;;;;;;;;4926143;29;20624;-86
2022/04/08 16:24:00;;;;;;;1.00;0.50;;;;;;;;;;4915507;29;20188;-86
2022/04/08 16:27:04;;;;;;;0.30;0.30;;;;;;;;;;4915374;29;20224;-87
2022/04/08 16:30:09;;;;;;;0.30;0.30;;;;;;;;;;4926066;29;20208;-87
2022/04/08 16:33:13;;;;;;;0.70;0.60;;;;;;;;;;4925734;29;20185;-86
2022/04/08 16:36:17;;;;;;;1.33;0.50;;;;;;;;;;4915423;29;20215;-87
2022/04/08 16:39:22;;;;;;;0.60;0.40;;;;;;;;;;4925927;29;20631;-87
2022/04/08 16:42:26;;;;;;;1.07;0.70;;;;;;;;;;4926094;29;20520;-87
2022/04/08 16:45:30;;;;;;;1.57;0.47;;;;;;;;;;4947762;29;20639;-87
2022/04/08 16:48:34;;;;;;;0.40;0.40;;;;;;;;;;4947541;29;20528;-87
2022/04/08 16:51:38;;;;;;;1.70;0.60;;;;;;;;;;4925963;29;20635;-87
2022/04/08 16:54:43;;;;;;;1.03;0.47;;;;;;;;;;4926229;29;20180;-87
2022/04/08 16:57:47;;;;;;;1.23;0.43;;;;;;;;;;4914537;29;20235;-87
2022/04/08 17:00:51;;;;;;;3.77;0.40;;;;;;;;;;4914511;29;20180;-87
2022/04/08 17:03:55;;;;;;;1.17;0.40;;;;;;;;;;4925540;29;20188;-87
2022/04/08 17:07:00;;;;;;;0.60;0.40;;;;;;;;;;4936417;29;20219;-88
2022/04/08 17:10:04;;;;;;;0.30;0.30;;;;;;;;;;4936696;29;20203;-87
2022/04/08 17:13:09;;;;;;;0.80;0.63;;;;;;;;;;4914460;29;20176;-87
2022/04/08 17:16:12;;;;;;;0.93;0.50;;;;;;;;;;4924902;29;20181;-87
2022/04/08 17:19:16;;;;;;;1.20;0.40;;;;;;;;;;4936505;29;20180;-87
2022/04/08 17:22:21;;;;;;;0.53;0.40;;;;;;;;;;4936140;29;20636;-87
2022/04/08 17:25:25;;;;;;;1.33;0.80;;;;;;;;;;4914577;29;20188;-87
2022/04/08 17:28:29;;;;;;;1.73;1.03;;;;;;;;;;4914344;29;20188;-88
2022/04/08 17:31:35;;;;;;;0.67;0.50;;;;;;;;;;4924696;29;20536;-87
2022/04/08 17:34:40;;;;;;;0.50;0.50;;;;;;;;;;4936093;29;20199;-87
2022/04/08 17:37:44;;;;;;;3.47;0.50;;;;;;;;;;4913772;29;20220;-87
2022/04/08 17:40:54;;;;;;;0.37;0.30;;;;;;;;;;4936300;29;20521;-87
2022/04/08 17:43:58;;;;;;;0.80;0.70;;;;;;;;;;4924747;29;20196;-87
2022/04/08 17:47:04;;;;;;;0.57;0.50;;;;;;;;;;4946628;29;20216;-87
2022/04/08 17:50:08;;;;;;;0.53;0.50;;;;;;;;;;4924780;29;20672;-87
2022/04/08 17:53:12;;;;;;;2.17;0.50;;;;;;;;;;4935747;29;20184;-87
2022/04/08 17:56:16;;;;;;;0.70;0.60;;;;;;;;;;4924840;29;20223;-87
2022/04/08 17:59:21;;;;;;;0.60;0.50;;;;;;;;;;4914216;29;20180;-87
2022/04/08 18:02:25;;;;;;;1.50;1.40;;;;;;;;;;4946254;29;20188;-87
2022/04/08 18:05:30;;;;;;;2.50;0.80;;;;;;;;;;4935581;29;20184;-87
2022/04/08 18:08:34;;;;;;;4.40;0.57;;;;;;;;;;4935480;29;20180;-87
2022/04/08 18:11:38;;;;;;;1.03;0.70;;;;;;;;;;4913728;29;20192;-87
2022/04/08 18:14:45;;;;;;;0.97;0.63;;;;;;;;;;4924389;29;20545;-87
2022/04/08 18:17:49;;;;;;;1.53;0.60;;;;;;;;;;4924409;29;20219;-87
2022/04/08 18:20:53;;;;;;;1.03;0.47;;;;;;;;;;4924888;29;20180;-87
2022/04/08 18:23:58;;;;;;;1.30;1.10;;;;;;;;;;4935714;29;20184;-87
2022/04/08 18:27:03;;;;;;;2.17;0.70;;;;;;;;;;4924447;29;20556;-87
2022/04/08 18:30:07;;;;;;;0.50;0.43;;;;;;;;;;4935514;29;20231;-87